sensor_id;sensor_type;location;lat;lon;timestamp;P1;durP1;ratioP1;P2;durP2;ratioP2
13866;SDS011;7003;46.982;15.248;2023-03-24T00:00:46;9.30;;;6.40;;
13866;SDS011;7003;46.982;15.248;2023-03-24T00:03:17;8.32;;;7.30;;
13866;SDS011;7003;46.982;15.248;2023-03-24T00:05:51;9.40;;;7.72;;
13866;SDS011;7003;46.982;15.248;2023-03-24T00:08:22;10.15;;;7.88;;
13866;SDS011;7003;46.982;15.248;2023-03-24T00:10:53;8.05;;;7.25;;
13866;SDS011;7003;46.982;15.248;2023-03-24T00:13:24;7.97;;;7.18;;
13866;SDS011;7003;46.982;15.248;2023-03-24T00:15:52;10.63;;;6.57;;
13866;SDS011;7003;46.982;15.248;2023-03-24T00:18:22;9.25;;;7.50;;
13866;SDS011;7003;46.982;15.248;2023-03-24T00:20:52;10.35;;;7.55;;
13866;SDS011;7003;46.982;15.248;2023-03-24T00:23:23;11.82;;;8.10;;
13866;SDS011;7003;46.982;15.248;2023-03-24T00:25:59;8.85;;;7.53;;
13866;SDS011;7003;46.982;15.248;2023-03-24T00:28:27;8.80;;;7.88;;
13866;SDS011;7003;46.982;15.248;2023-03-24T00:30:56;17.58;;;7.55;;
13866;SDS011;7003;46.982;15.248;2023-03-24T00:33:24;7.93;;;7.05;;
13866;SDS011;7003;46.982;15.248;2023-03-24T00:35:52;7.47;;;6.63;;
13866;SDS011;7003;46.982;15.248;2023-03-24T00:38:19;8.25;;;7.45;;
13866;SDS011;7003;46.982;15.248;2023-03-24T00:40:49;10.07;;;7.13;;
13866;SDS011;7003;46.982;15.248;2023-03-24T00:43:20;8.10;;;6.75;;
13866;SDS011;7003;46.982;15.248;2023-03-24T00:45:47;8.90;;;7.30;;
13866;SDS011;7003;46.982;15.248;2023-03-24T00:48:18;8.73;;;7.80;;
13866;SDS011;7003;46.982;15.248;2023-03-24T00:50:49;9.43;;;8.07;;
13866;SDS011;7003;46.982;15.248;2023-03-24T00:53:19;10.68;;;8.27;;
13866;SDS011;7003;46.982;15.248;2023-03-24T00:55:50;7.68;;;6.03;;
13866;SDS011;7003;46.982;15.248;2023-03-24T00:58:19;13.13;;;7.50;;
13866;SDS011;7003;46.982;15.248;2023-03-24T01:00:48;8.45;;;6.32;;
13866;SDS011;7003;46.982;15.248;2023-03-24T01:03:17;8.23;;;7.43;;
13866;SDS011;7003;46.982;15.248;2023-03-24T01:05:46;8.90;;;6.65;;
13866;SDS011;7003;46.982;15.248;2023-03-24T01:08:14;11.25;;;7.63;;
13866;SDS011;7003;46.982;15.248;2023-03-24T01:10:46;10.88;;;6.35;;
13866;SDS011;7003;46.982;15.248;2023-03-24T01:13:18;9.45;;;7.13;;
13866;SDS011;7003;46.982;15.248;2023-03-24T01:15:48;14.80;;;8.35;;
13866;SDS011;7003;46.982;15.248;2023-03-24T01:18:18;8.88;;;6.60;;
13866;SDS011;7003;46.982;15.248;2023-03-24T01:20:47;9.20;;;8.18;;
13866;SDS011;7003;46.982;15.248;2023-03-24T01:23:16;8.05;;;7.22;;
13866;SDS011;7003;46.982;15.248;2023-03-24T01:25:50;12.07;;;7.72;;
13866;SDS011;7003;46.982;15.248;2023-03-24T01:28:19;9.05;;;6.97;;
13866;SDS011;7003;46.982;15.248;2023-03-24T01:30:51;9.95;;;7.78;;
13866;SDS011;7003;46.982;15.248;2023-03-24T01:33:22;7.88;;;6.75;;
13866;SDS011;7003;46.982;15.248;2023-03-24T01:35:49;8.32;;;7.47;;
13866;SDS011;7003;46.982;15.248;2023-03-24T01:38:18;11.50;;;8.52;;
13866;SDS011;7003;46.982;15.248;2023-03-24T01:40:46;7.88;;;7.07;;
13866;SDS011;7003;46.982;15.248;2023-03-24T01:43:17;10.93;;;7.68;;
13866;SDS011;7003;46.982;15.248;2023-03-24T01:45:59;7.65;;;6.10;;
13866;SDS011;7003;46.982;15.248;2023-03-24T01:48:36;7.95;;;6.32;;
13866;SDS011;7003;46.982;15.248;2023-03-24T01:51:09;7.65;;;6.53;;
13866;SDS011;7003;46.982;15.248;2023-03-24T01:53:48;6.72;;;5.82;;
13866;SDS011;7003;46.982;15.248;2023-03-24T01:56:21;8.18;;;6.75;;
13866;SDS011;7003;46.982;15.248;2023-03-24T01:58:52;8.65;;;7.45;;
13866;SDS011;7003;46.982;15.248;2023-03-24T02:01:24;9.32;;;7.20;;
13866;SDS011;7003;46.982;15.248;2023-03-24T02:03:54;8.57;;;6.88;;
13866;SDS011;7003;46.982;15.248;2023-03-24T02:06:22;10.35;;;8.77;;
13866;SDS011;7003;46.982;15.248;2023-03-24T02:08:53;10.20;;;7.80;;
13866;SDS011;7003;46.982;15.248;2023-03-24T02:11:23;8.43;;;7.07;;
13866;SDS011;7003;46.982;15.248;2023-03-24T02:13:57;9.43;;;7.65;;
13866;SDS011;7003;46.982;15.248;2023-03-24T02:16:29;10.23;;;6.97;;
13866;SDS011;7003;46.982;15.248;2023-03-24T02:28:29;7.35;;;5.85;;
13866;SDS011;7003;46.982;15.248;2023-03-24T02:31:15;8.45;;;7.50;;
13866;SDS011;7003;46.982;15.248;2023-03-24T02:37:25;7.45;;;5.78;;
13866;SDS011;7003;46.982;15.248;2023-03-24T02:40:13;8.70;;;7.00;;
13866;SDS011;7003;46.982;15.248;2023-03-24T02:42:51;7.70;;;6.78;;
13866;SDS011;7003;46.982;15.248;2023-03-24T02:45:32;7.30;;;6.55;;
13866;SDS011;7003;46.982;15.248;2023-03-24T02:51:00;10.32;;;7.75;;
13866;SDS011;7003;46.982;15.248;2023-03-24T02:53:38;8.45;;;6.97;;
13866;SDS011;7003;46.982;15.248;2023-03-24T02:56:15;8.55;;;7.28;;
13866;SDS011;7003;46.982;15.248;2023-03-24T02:58:51;9.02;;;6.35;;
13866;SDS011;7003;46.982;15.248;2023-03-24T03:01:28;8.18;;;7.10;;
13866;SDS011;7003;46.982;15.248;2023-03-24T03:04:04;8.98;;;7.65;;
13866;SDS011;7003;46.982;15.248;2023-03-24T03:06:38;8.27;;;6.35;;
13866;SDS011;7003;46.982;15.248;2023-03-24T03:09:10;7.35;;;6.28;;
13866;SDS011;7003;46.982;15.248;2023-03-24T03:11:42;8.68;;;7.75;;
13866;SDS011;7003;46.982;15.248;2023-03-24T03:14:16;7.20;;;5.82;;
13866;SDS011;7003;46.982;15.248;2023-03-24T03:16:49;9.15;;;7.07;;
13866;SDS011;7003;46.982;15.248;2023-03-24T03:19:28;8.40;;;6.68;;
13866;SDS011;7003;46.982;15.248;2023-03-24T03:22:00;8.20;;;6.45;;
13866;SDS011;7003;46.982;15.248;2023-03-24T03:24:34;10.63;;;8.20;;
13866;SDS011;7003;46.982;15.248;2023-03-24T03:27:10;7.22;;;6.50;;
13866;SDS011;7003;46.982;15.248;2023-03-24T03:29:44;11.07;;;6.55;;
13866;SDS011;7003;46.982;15.248;2023-03-24T03:32:19;9.23;;;6.95;;
13866;SDS011;7003;46.982;15.248;2023-03-24T03:34:55;11.52;;;6.55;;
13866;SDS011;7003;46.982;15.248;2023-03-24T03:37:27;9.68;;;7.15;;
13866;SDS011;7003;46.982;15.248;2023-03-24T03:40:03;6.97;;;6.30;;
13866;SDS011;7003;46.982;15.248;2023-03-24T03:42:40;9.05;;;7.97;;
13866;SDS011;7003;46.982;15.248;2023-03-24T03:45:10;11.20;;;8.73;;
13866;SDS011;7003;46.982;15.248;2023-03-24T03:47:38;9.40;;;7.73;;
13866;SDS011;7003;46.982;15.248;2023-03-24T03:50:07;8.10;;;6.47;;
13866;SDS011;7003;46.982;15.248;2023-03-24T03:52:35;7.63;;;6.63;;
13866;SDS011;7003;46.982;15.248;2023-03-24T03:55:08;8.25;;;6.45;;
13866;SDS011;7003;46.982;15.248;2023-03-24T03:57:37;7.57;;;6.28;;
13866;SDS011;7003;46.982;15.248;2023-03-24T04:00:07;8.15;;;5.68;;
13866;SDS011;7003;46.982;15.248;2023-03-24T04:02:43;8.23;;;7.00;;
13866;SDS011;7003;46.982;15.248;2023-03-24T04:05:25;6.55;;;5.95;;
13866;SDS011;7003;46.982;15.248;2023-03-24T04:08:03;10.15;;;7.47;;
13866;SDS011;7003;46.982;15.248;2023-03-24T04:10:42;9.82;;;6.93;;
13866;SDS011;7003;46.982;15.248;2023-03-24T04:13:25;11.90;;;6.80;;
13866;SDS011;7003;46.982;15.248;2023-03-24T04:16:10;7.60;;;6.47;;
13866;SDS011;7003;46.982;15.248;2023-03-24T04:18:57;10.48;;;7.25;;
13866;SDS011;7003;46.982;15.248;2023-03-24T04:21:42;8.00;;;6.97;;
13866;SDS011;7003;46.982;15.248;2023-03-24T04:24:24;8.55;;;6.55;;
13866;SDS011;7003;46.982;15.248;2023-03-24T04:27:12;8.73;;;7.22;;
13866;SDS011;7003;46.982;15.248;2023-03-24T04:30:01;7.68;;;6.97;;
13866;SDS011;7003;46.982;15.248;2023-03-24T04:32:39;8.15;;;7.13;;
13866;SDS011;7003;46.982;15.248;2023-03-24T04:35:17;6.45;;;5.80;;
13866;SDS011;7003;46.982;15.248;2023-03-24T04:37:56;7.70;;;7.00;;
13866;SDS011;7003;46.982;15.248;2023-03-24T04:40:31;10.38;;;6.88;;
13866;SDS011;7003;46.982;15.248;2023-03-24T04:43:04;7.22;;;5.53;;
13866;SDS011;7003;46.982;15.248;2023-03-24T04:45:34;11.73;;;8.38;;
13866;SDS011;7003;46.982;15.248;2023-03-24T04:48:05;8.55;;;7.35;;
13866;SDS011;7003;46.982;15.248;2023-03-24T04:50:36;9.77;;;7.32;;
13866;SDS011;7003;46.982;15.248;2023-03-24T04:53:08;8.33;;;6.80;;
13866;SDS011;7003;46.982;15.248;2023-03-24T04:55:43;9.15;;;7.15;;
13866;SDS011;7003;46.982;15.248;2023-03-24T04:58:22;8.18;;;6.78;;
13866;SDS011;7003;46.982;15.248;2023-03-24T05:00:50;7.47;;;6.78;;
13866;SDS011;7003;46.982;15.248;2023-03-24T05:03:25;8.57;;;7.50;;
13866;SDS011;7003;46.982;15.248;2023-03-24T05:05:53;8.30;;;6.78;;
13866;SDS011;7003;46.982;15.248;2023-03-24T05:08:21;9.50;;;6.80;;
13866;SDS011;7003;46.982;15.248;2023-03-24T05:10:50;19.48;;;7.43;;
13866;SDS011;7003;46.982;15.248;2023-03-24T05:13:22;8.63;;;6.80;;
13866;SDS011;7003;46.982;15.248;2023-03-24T05:15:51;8.18;;;7.38;;
13866;SDS011;7003;46.982;15.248;2023-03-24T05:18:20;7.90;;;7.18;;
13866;SDS011;7003;46.982;15.248;2023-03-24T05:20:50;7.13;;;6.13;;
13866;SDS011;7003;46.982;15.248;2023-03-24T05:23:18;6.88;;;6.20;;
13866;SDS011;7003;46.982;15.248;2023-03-24T05:25:48;9.10;;;6.88;;
13866;SDS011;7003;46.982;15.248;2023-03-24T05:28:17;8.10;;;6.07;;
13866;SDS011;7003;46.982;15.248;2023-03-24T05:30:46;9.38;;;7.38;;
13866;SDS011;7003;46.982;15.248;2023-03-24T05:33:17;8.60;;;7.30;;
13866;SDS011;7003;46.982;15.248;2023-03-24T05:35:46;7.50;;;6.50;;
13866;SDS011;7003;46.982;15.248;2023-03-24T05:38:20;9.13;;;6.78;;
13866;SDS011;7003;46.982;15.248;2023-03-24T05:40:51;9.70;;;6.95;;
13866;SDS011;7003;46.982;15.248;2023-03-24T05:43:25;6.47;;;5.82;;
13866;SDS011;7003;46.982;15.248;2023-03-24T05:45:54;6.47;;;5.88;;
13866;SDS011;7003;46.982;15.248;2023-03-24T05:48:25;9.52;;;6.93;;
13866;SDS011;7003;46.982;15.248;2023-03-24T05:50:54;10.40;;;7.00;;
13866;SDS011;7003;46.982;15.248;2023-03-24T05:53:28;9.30;;;7.37;;
13866;SDS011;7003;46.982;15.248;2023-03-24T05:55:58;7.78;;;6.97;;
13866;SDS011;7003;46.982;15.248;2023-03-24T05:58:28;8.55;;;6.38;;
13866;SDS011;7003;46.982;15.248;2023-03-24T06:01:05;7.03;;;6.25;;
13866;SDS011;7003;46.982;15.248;2023-03-24T06:03:39;8.05;;;7.25;;
13866;SDS011;7003;46.982;15.248;2023-03-24T06:06:09;14.18;;;7.85;;
13866;SDS011;7003;46.982;15.248;2023-03-24T06:08:45;17.98;;;9.30;;
13866;SDS011;7003;46.982;15.248;2023-03-24T06:11:14;14.18;;;7.97;;
13866;SDS011;7003;46.982;15.248;2023-03-24T06:13:47;8.63;;;6.90;;
13866;SDS011;7003;46.982;15.248;2023-03-24T06:16:16;9.23;;;6.30;;
13866;SDS011;7003;46.982;15.248;2023-03-24T06:18:48;22.83;;;8.38;;
13866;SDS011;7003;46.982;15.248;2023-03-24T06:21:17;9.40;;;6.90;;
13866;SDS011;7003;46.982;15.248;2023-03-24T06:23:49;10.95;;;7.45;;
13866;SDS011;7003;46.982;15.248;2023-03-24T06:26:18;14.43;;;8.70;;
13866;SDS011;7003;46.982;15.248;2023-03-24T06:28:47;12.05;;;7.15;;
13866;SDS011;7003;46.982;15.248;2023-03-24T06:31:17;10.20;;;7.88;;
13866;SDS011;7003;46.982;15.248;2023-03-24T06:33:49;8.38;;;7.55;;
13866;SDS011;7003;46.982;15.248;2023-03-24T06:36:21;10.10;;;7.78;;
13866;SDS011;7003;46.982;15.248;2023-03-24T06:38:57;7.85;;;7.07;;
13866;SDS011;7003;46.982;15.248;2023-03-24T06:41:25;9.10;;;7.75;;
13866;SDS011;7003;46.982;15.248;2023-03-24T06:43:53;8.68;;;6.75;;
13866;SDS011;7003;46.982;15.248;2023-03-24T06:46:24;8.63;;;7.45;;
13866;SDS011;7003;46.982;15.248;2023-03-24T06:48:54;8.45;;;7.63;;
13866;SDS011;7003;46.982;15.248;2023-03-24T06:51:22;7.80;;;6.85;;
13866;SDS011;7003;46.982;15.248;2023-03-24T06:53:53;13.25;;;7.97;;
13866;SDS011;7003;46.982;15.248;2023-03-24T06:56:25;7.78;;;6.97;;
13866;SDS011;7003;46.982;15.248;2023-03-24T06:58:54;8.75;;;7.50;;
13866;SDS011;7003;46.982;15.248;2023-03-24T07:01:23;7.97;;;7.22;;
13866;SDS011;7003;46.982;15.248;2023-03-24T07:03:55;11.57;;;7.75;;
13866;SDS011;7003;46.982;15.248;2023-03-24T07:06:24;6.90;;;6.30;;
13866;SDS011;7003;46.982;15.248;2023-03-24T07:08:55;8.13;;;7.10;;
13866;SDS011;7003;46.982;15.248;2023-03-24T07:11:26;8.60;;;7.18;;
13866;SDS011;7003;46.982;15.248;2023-03-24T07:13:55;8.35;;;6.47;;
13866;SDS011;7003;46.982;15.248;2023-03-24T07:16:24;8.75;;;6.13;;
13866;SDS011;7003;46.982;15.248;2023-03-24T07:18:53;10.00;;;7.20;;
13866;SDS011;7003;46.982;15.248;2023-03-24T07:21:21;6.18;;;5.18;;
13866;SDS011;7003;46.982;15.248;2023-03-24T07:23:51;7.90;;;6.22;;
13866;SDS011;7003;46.982;15.248;2023-03-24T07:26:21;7.53;;;6.82;;
13866;SDS011;7003;46.982;15.248;2023-03-24T07:28:55;6.90;;;6.25;;
13866;SDS011;7003;46.982;15.248;2023-03-24T07:31:27;7.65;;;6.40;;
13866;SDS011;7003;46.982;15.248;2023-03-24T07:33:57;7.53;;;6.82;;
13866;SDS011;7003;46.982;15.248;2023-03-24T07:36:26;7.97;;;6.10;;
13866;SDS011;7003;46.982;15.248;2023-03-24T07:38:55;6.78;;;6.13;;
13866;SDS011;7003;46.982;15.248;2023-03-24T07:41:25;6.15;;;5.55;;
13866;SDS011;7003;46.982;15.248;2023-03-24T07:43:55;8.30;;;7.35;;
13866;SDS011;7003;46.982;15.248;2023-03-24T07:46:22;7.53;;;6.22;;
13866;SDS011;7003;46.982;15.248;2023-03-24T07:48:50;8.23;;;7.03;;
13866;SDS011;7003;46.982;15.248;2023-03-24T07:51:21;9.50;;;7.40;;
13866;SDS011;7003;46.982;15.248;2023-03-24T07:53:48;6.93;;;6.22;;
13866;SDS011;7003;46.982;15.248;2023-03-24T07:56:19;10.18;;;7.30;;
13866;SDS011;7003;46.982;15.248;2023-03-24T07:58:48;11.63;;;8.85;;
13866;SDS011;7003;46.982;15.248;2023-03-24T08:01:18;8.57;;;7.22;;
13866;SDS011;7003;46.982;15.248;2023-03-24T08:03:49;7.32;;;6.60;;
13866;SDS011;7003;46.982;15.248;2023-03-24T08:06:21;11.32;;;7.45;;
13866;SDS011;7003;46.982;15.248;2023-03-24T08:08:49;8.43;;;6.55;;
13866;SDS011;7003;46.982;15.248;2023-03-24T08:11:17;10.10;;;6.80;;
13866;SDS011;7003;46.982;15.248;2023-03-24T08:13:46;7.82;;;5.65;;
13866;SDS011;7003;46.982;15.248;2023-03-24T08:16:14;8.70;;;6.95;;
13866;SDS011;7003;46.982;15.248;2023-03-24T08:18:46;9.43;;;6.68;;
13866;SDS011;7003;46.982;15.248;2023-03-24T08:21:17;8.77;;;6.68;;
13866;SDS011;7003;46.982;15.248;2023-03-24T08:23:45;7.03;;;5.97;;
13866;SDS011;7003;46.982;15.248;2023-03-24T08:26:16;8.25;;;6.85;;
13866;SDS011;7003;46.982;15.248;2023-03-24T08:28:47;6.97;;;6.28;;
13866;SDS011;7003;46.982;15.248;2023-03-24T08:31:15;15.52;;;5.75;;
13866;SDS011;7003;46.982;15.248;2023-03-24T08:33:47;6.53;;;5.93;;
13866;SDS011;7003;46.982;15.248;2023-03-24T08:36:15;6.53;;;5.93;;
13866;SDS011;7003;46.982;15.248;2023-03-24T08:38:45;6.80;;;5.82;;
13866;SDS011;7003;46.982;15.248;2023-03-24T08:41:16;7.32;;;6.00;;
13866;SDS011;7003;46.982;15.248;2023-03-24T08:43:44;8.90;;;7.28;;
13866;SDS011;7003;46.982;15.248;2023-03-24T08:46:15;7.85;;;6.32;;
13866;SDS011;7003;46.982;15.248;2023-03-24T08:48:48;6.43;;;5.75;;
13866;SDS011;7003;46.982;15.248;2023-03-24T08:51:16;6.43;;;5.82;;
13866;SDS011;7003;46.982;15.248;2023-03-24T08:53:44;7.47;;;6.80;;
13866;SDS011;7003;46.982;15.248;2023-03-24T08:56:13;6.35;;;5.82;;
13866;SDS011;7003;46.982;15.248;2023-03-24T08:58:44;8.40;;;6.50;;
13866;SDS011;7003;46.982;15.248;2023-03-24T09:01:13;6.72;;;6.18;;
13866;SDS011;7003;46.982;15.248;2023-03-24T09:03:44;7.18;;;5.63;;
13866;SDS011;7003;46.982;15.248;2023-03-24T09:06:14;5.80;;;5.22;;
13866;SDS011;7003;46.982;15.248;2023-03-24T09:08:44;7.97;;;7.18;;
13866;SDS011;7003;46.982;15.248;2023-03-24T09:11:13;7.03;;;5.97;;
13866;SDS011;7003;46.982;15.248;2023-03-24T09:13:46;7.82;;;6.47;;
13866;SDS011;7003;46.982;15.248;2023-03-24T09:16:14;5.93;;;5.30;;
13866;SDS011;7003;46.982;15.248;2023-03-24T09:18:45;8.73;;;6.43;;
13866;SDS011;7003;46.982;15.248;2023-03-24T09:21:14;5.47;;;4.97;;
13866;SDS011;7003;46.982;15.248;2023-03-24T09:23:43;11.55;;;6.75;;
13866;SDS011;7003;46.982;15.248;2023-03-24T09:26:10;7.32;;;6.55;;
13866;SDS011;7003;46.982;15.248;2023-03-24T09:28:38;7.95;;;5.97;;
13866;SDS011;7003;46.982;15.248;2023-03-24T09:31:08;9.55;;;5.97;;
13866;SDS011;7003;46.982;15.248;2023-03-24T09:33:36;6.78;;;5.60;;
13866;SDS011;7003;46.982;15.248;2023-03-24T09:36:05;7.07;;;6.38;;
13866;SDS011;7003;46.982;15.248;2023-03-24T09:38:37;5.80;;;5.30;;
13866;SDS011;7003;46.982;15.248;2023-03-24T09:41:10;9.25;;;6.95;;
13866;SDS011;7003;46.982;15.248;2023-03-24T09:43:43;7.60;;;6.30;;
13866;SDS011;7003;46.982;15.248;2023-03-24T09:46:14;7.90;;;7.18;;
13866;SDS011;7003;46.982;15.248;2023-03-24T09:48:54;8.68;;;6.68;;
13866;SDS011;7003;46.982;15.248;2023-03-24T09:51:25;7.93;;;7.13;;
13866;SDS011;7003;46.982;15.248;2023-03-24T09:54:01;7.85;;;5.45;;
13866;SDS011;7003;46.982;15.248;2023-03-24T09:56:40;8.60;;;6.63;;
13866;SDS011;7003;46.982;15.248;2023-03-24T09:59:15;9.52;;;7.03;;
13866;SDS011;7003;46.982;15.248;2023-03-24T10:01:46;8.25;;;7.43;;
13866;SDS011;7003;46.982;15.248;2023-03-24T10:04:16;7.28;;;6.55;;
13866;SDS011;7003;46.982;15.248;2023-03-24T10:06:46;8.18;;;7.13;;
13866;SDS011;7003;46.982;15.248;2023-03-24T10:09:23;8.85;;;7.47;;
13866;SDS011;7003;46.982;15.248;2023-03-24T10:11:56;9.05;;;6.28;;
13866;SDS011;7003;46.982;15.248;2023-03-24T10:14:46;9.85;;;7.43;;
13866;SDS011;7003;46.982;15.248;2023-03-24T10:17:26;9.48;;;7.25;;
13866;SDS011;7003;46.982;15.248;2023-03-24T10:20:02;7.40;;;6.38;;
13866;SDS011;7003;46.982;15.248;2023-03-24T10:22:40;7.32;;;6.60;;
13866;SDS011;7003;46.982;15.248;2023-03-24T10:25:19;8.52;;;6.55;;
13866;SDS011;7003;46.982;15.248;2023-03-24T10:27:52;10.60;;;5.90;;
13866;SDS011;7003;46.982;15.248;2023-03-24T10:30:26;6.07;;;5.35;;
13866;SDS011;7003;46.982;15.248;2023-03-24T10:32:57;7.13;;;5.20;;
13866;SDS011;7003;46.982;15.248;2023-03-24T10:35:26;7.95;;;7.13;;
13866;SDS011;7003;46.982;15.248;2023-03-24T10:38:00;7.20;;;6.18;;
13866;SDS011;7003;46.982;15.248;2023-03-24T10:40:40;9.80;;;6.10;;
13866;SDS011;7003;46.982;15.248;2023-03-24T10:43:09;6.25;;;5.65;;
13866;SDS011;7003;46.982;15.248;2023-03-24T10:45:38;5.95;;;5.38;;
13866;SDS011;7003;46.982;15.248;2023-03-24T10:48:08;7.28;;;6.47;;
13866;SDS011;7003;46.982;15.248;2023-03-24T10:50:40;8.23;;;6.25;;
13866;SDS011;7003;46.982;15.248;2023-03-24T10:53:19;7.80;;;6.40;;
13866;SDS011;7003;46.982;15.248;2023-03-24T10:55:49;7.35;;;6.57;;
13866;SDS011;7003;46.982;15.248;2023-03-24T10:58:24;6.07;;;5.55;;
13866;SDS011;7003;46.982;15.248;2023-03-24T11:00:56;7.45;;;6.68;;
13866;SDS011;7003;46.982;15.248;2023-03-24T11:03:27;6.97;;;6.35;;
13866;SDS011;7003;46.982;15.248;2023-03-24T11:06:01;7.25;;;5.97;;
13866;SDS011;7003;46.982;15.248;2023-03-24T11:08:31;6.80;;;5.78;;
13866;SDS011;7003;46.982;15.248;2023-03-24T11:11:06;6.80;;;6.10;;
13866;SDS011;7003;46.982;15.248;2023-03-24T11:13:41;6.93;;;5.72;;
13866;SDS011;7003;46.982;15.248;2023-03-24T11:16:25;6.30;;;4.93;;
13866;SDS011;7003;46.982;15.248;2023-03-24T11:18:58;5.93;;;5.05;;
13866;SDS011;7003;46.982;15.248;2023-03-24T11:21:28;6.30;;;5.35;;
13866;SDS011;7003;46.982;15.248;2023-03-24T11:24:00;5.72;;;5.00;;
13866;SDS011;7003;46.982;15.248;2023-03-24T11:26:32;6.07;;;5.30;;
13866;SDS011;7003;46.982;15.248;2023-03-24T11:29:02;6.35;;;5.18;;
13866;SDS011;7003;46.982;15.248;2023-03-24T11:31:32;8.63;;;6.22;;
13866;SDS011;7003;46.982;15.248;2023-03-24T11:34:05;6.85;;;6.05;;
13866;SDS011;7003;46.982;15.248;2023-03-24T11:36:43;6.32;;;5.72;;
13866;SDS011;7003;46.982;15.248;2023-03-24T11:39:19;9.20;;;5.07;;
13866;SDS011;7003;46.982;15.248;2023-03-24T11:41:59;7.68;;;5.63;;
13866;SDS011;7003;46.982;15.248;2023-03-24T11:44:31;6.43;;;5.38;;
13866;SDS011;7003;46.982;15.248;2023-03-24T11:47:09;8.50;;;5.32;;
13866;SDS011;7003;46.982;15.248;2023-03-24T11:49:45;6.93;;;6.18;;
13866;SDS011;7003;46.982;15.248;2023-03-24T11:52:19;6.63;;;5.65;;
13866;SDS011;7003;46.982;15.248;2023-03-24T11:54:50;8.38;;;6.47;;
13866;SDS011;7003;46.982;15.248;2023-03-24T11:57:25;8.07;;;5.57;;
13866;SDS011;7003;46.982;15.248;2023-03-24T12:00:11;5.80;;;5.25;;
13866;SDS011;7003;46.982;15.248;2023-03-24T12:02:50;5.35;;;4.68;;
13866;SDS011;7003;46.982;15.248;2023-03-24T12:05:35;6.10;;;5.18;;
13866;SDS011;7003;46.982;15.248;2023-03-24T12:11:07;8.68;;;7.88;;
13866;SDS011;7003;46.982;15.248;2023-03-24T12:13:45;6.63;;;5.03;;
13866;SDS011;7003;46.982;15.248;2023-03-24T12:16:30;5.97;;;4.80;;
13866;SDS011;7003;46.982;15.248;2023-03-24T12:19:20;4.75;;;4.35;;
13866;SDS011;7003;46.982;15.248;2023-03-24T12:21:59;4.90;;;4.50;;
13866;SDS011;7003;46.982;15.248;2023-03-24T12:24:41;9.85;;;4.40;;
13866;SDS011;7003;46.982;15.248;2023-03-24T12:27:22;6.22;;;5.47;;
13866;SDS011;7003;46.982;15.248;2023-03-24T12:30:00;5.15;;;4.35;;
13866;SDS011;7003;46.982;15.248;2023-03-24T12:32:46;6.10;;;4.63;;
13866;SDS011;7003;46.982;15.248;2023-03-24T12:38:24;4.95;;;4.55;;
13866;SDS011;7003;46.982;15.248;2023-03-24T12:41:21;5.45;;;4.80;;
13866;SDS011;7003;46.982;15.248;2023-03-24T12:44:06;7.65;;;5.28;;
13866;SDS011;7003;46.982;15.248;2023-03-24T12:46:50;5.57;;;4.88;;
13866;SDS011;7003;46.982;15.248;2023-03-24T12:49:37;4.82;;;4.35;;
13866;SDS011;7003;46.982;15.248;2023-03-24T12:52:17;7.97;;;5.40;;
13866;SDS011;7003;46.982;15.248;2023-03-24T12:55:03;5.40;;;4.75;;
13866;SDS011;7003;46.982;15.248;2023-03-24T12:57:38;6.25;;;5.05;;
13866;SDS011;7003;46.982;15.248;2023-03-24T13:00:12;5.63;;;5.10;;
13866;SDS011;7003;46.982;15.248;2023-03-24T13:02:50;5.50;;;4.70;;
13866;SDS011;7003;46.982;15.248;2023-03-24T13:05:23;10.93;;;5.32;;
13866;SDS011;7003;46.982;15.248;2023-03-24T13:08:00;6.18;;;5.45;;
13866;SDS011;7003;46.982;15.248;2023-03-24T13:10:33;6.13;;;4.85;;
13866;SDS011;7003;46.982;15.248;2023-03-24T13:13:07;5.75;;;4.93;;
13866;SDS011;7003;46.982;15.248;2023-03-24T13:15:40;6.28;;;5.55;;
13866;SDS011;7003;46.982;15.248;2023-03-24T13:18:19;7.57;;;4.90;;
13866;SDS011;7003;46.982;15.248;2023-03-24T13:20:58;5.45;;;4.95;;
13866;SDS011;7003;46.982;15.248;2023-03-24T13:23:39;7.30;;;4.80;;
13866;SDS011;7003;46.982;15.248;2023-03-24T13:26:16;5.18;;;4.70;;
13866;SDS011;7003;46.982;15.248;2023-03-24T13:28:53;9.63;;;5.50;;
13866;SDS011;7003;46.982;15.248;2023-03-24T13:31:30;13.38;;;6.47;;
13866;SDS011;7003;46.982;15.248;2023-03-24T13:34:04;6.65;;;5.20;;
13866;SDS011;7003;46.982;15.248;2023-03-24T13:36:41;5.80;;;5.03;;
13866;SDS011;7003;46.982;15.248;2023-03-24T13:39:16;8.43;;;6.40;;
13866;SDS011;7003;46.982;15.248;2023-03-24T13:41:49;6.28;;;5.05;;
13866;SDS011;7003;46.982;15.248;2023-03-24T13:44:21;7.82;;;6.43;;
13866;SDS011;7003;46.982;15.248;2023-03-24T13:47:08;7.00;;;5.50;;
13866;SDS011;7003;46.982;15.248;2023-03-24T13:49:41;5.63;;;4.90;;
13866;SDS011;7003;46.982;15.248;2023-03-24T13:52:26;9.45;;;5.50;;
13866;SDS011;7003;46.982;15.248;2023-03-24T13:55:00;11.50;;;5.90;;
13866;SDS011;7003;46.982;15.248;2023-03-24T13:57:33;9.30;;;5.32;;
13866;SDS011;7003;46.982;15.248;2023-03-24T14:00:15;5.63;;;5.13;;
13866;SDS011;7003;46.982;15.248;2023-03-24T14:02:48;6.70;;;5.47;;
13866;SDS011;7003;46.982;15.248;2023-03-24T14:05:32;10.55;;;5.47;;
13866;SDS011;7003;46.982;15.248;2023-03-24T14:08:13;6.78;;;5.97;;
13866;SDS011;7003;46.982;15.248;2023-03-24T14:10:44;11.40;;;5.75;;
13866;SDS011;7003;46.982;15.248;2023-03-24T14:13:21;7.15;;;4.85;;
13866;SDS011;7003;46.982;15.248;2023-03-24T14:19:19;5.18;;;4.68;;
13866;SDS011;7003;46.982;15.248;2023-03-24T14:21:55;7.53;;;5.72;;
13866;SDS011;7003;46.982;15.248;2023-03-24T14:24:26;7.63;;;4.78;;
13866;SDS011;7003;46.982;15.248;2023-03-24T14:26:57;5.85;;;4.55;;
13866;SDS011;7003;46.982;15.248;2023-03-24T14:29:38;6.75;;;5.13;;
13866;SDS011;7003;46.982;15.248;2023-03-24T14:32:13;5.10;;;4.60;;
13866;SDS011;7003;46.982;15.248;2023-03-24T14:34:50;5.20;;;4.70;;
13866;SDS011;7003;46.982;15.248;2023-03-24T14:37:23;6.70;;;4.90;;
13866;SDS011;7003;46.982;15.248;2023-03-24T14:39:55;8.55;;;5.18;;
13866;SDS011;7003;46.982;15.248;2023-03-24T14:45:52;9.00;;;5.72;;
13866;SDS011;7003;46.982;15.248;2023-03-24T14:48:34;6.15;;;5.30;;
13866;SDS011;7003;46.982;15.248;2023-03-24T14:51:11;6.80;;;5.07;;
13866;SDS011;7003;46.982;15.248;2023-03-24T14:53:51;8.85;;;6.13;;
13866;SDS011;7003;46.982;15.248;2023-03-24T14:56:26;5.28;;;4.88;;
13866;SDS011;7003;46.982;15.248;2023-03-24T14:59:00;9.80;;;5.30;;
13866;SDS011;7003;46.982;15.248;2023-03-24T15:01:34;7.35;;;5.88;;
13866;SDS011;7003;46.982;15.248;2023-03-24T15:04:04;5.95;;;5.25;;
13866;SDS011;7003;46.982;15.248;2023-03-24T15:06:32;10.68;;;4.75;;
13866;SDS011;7003;46.982;15.248;2023-03-24T15:09:13;9.07;;;6.13;;
13866;SDS011;7003;46.982;15.248;2023-03-24T15:11:42;7.57;;;6.53;;
13866;SDS011;7003;46.982;15.248;2023-03-24T15:14:14;6.53;;;5.05;;
13866;SDS011;7003;46.982;15.248;2023-03-24T15:16:51;7.53;;;5.25;;
13866;SDS011;7003;46.982;15.248;2023-03-24T15:19:26;6.95;;;5.35;;
13866;SDS011;7003;46.982;15.248;2023-03-24T15:21:58;5.25;;;4.63;;
13866;SDS011;7003;46.982;15.248;2023-03-24T15:24:33;6.15;;;5.65;;
13866;SDS011;7003;46.982;15.248;2023-03-24T15:27:13;5.07;;;4.32;;
13866;SDS011;7003;46.982;15.248;2023-03-24T15:29:45;5.15;;;4.55;;
13866;SDS011;7003;46.982;15.248;2023-03-24T15:32:22;7.53;;;5.43;;
13866;SDS011;7003;46.982;15.248;2023-03-24T15:34:52;7.57;;;4.70;;
13866;SDS011;7003;46.982;15.248;2023-03-24T15:37:24;4.82;;;4.43;;
13866;SDS011;7003;46.982;15.248;2023-03-24T15:40:00;5.57;;;4.80;;
13866;SDS011;7003;46.982;15.248;2023-03-24T15:42:34;7.03;;;5.05;;
13866;SDS011;7003;46.982;15.248;2023-03-24T15:45:18;7.82;;;5.07;;
13866;SDS011;7003;46.982;15.248;2023-03-24T15:47:49;4.70;;;4.28;;
13866;SDS011;7003;46.982;15.248;2023-03-24T15:50:27;6.55;;;4.75;;